Allingtown, Connecticut
Current Conditions -  °F | °C
As of 6:16 PM on Wednesday 22 Oct 2014 (Local Time) from KHVN Reporting Station
Light Rain Light Rain  
Wind Chill: 54°   Ceiling: 1500
Heat Index: 54°   Visibility: 10mi
Dew Point: 49°   Wind: 25mph
Humidity: 83%   Direction: 10°N
Pressure: 29.78"   Gusts: 32mph
Location:  41.2716°N, 72.9666°W
Report Text: KHVN 222216Z 01022G28KT 10SM -RA BKN015 BKN023 OVC070 12/09 A2978 RMK AO2 PK WND 36028/2215 P0000 T01220094
Loading
Personal Weather Stations






























Interactive Weather Map New forecast layout! Learn more

10-Day Weather Forecast

Advertisements
Track Severe Weather on mobile